Time;durP1;ratioP1;P1;durP2;ratioP2;P2;SDS_P1;SDS_P2;PMS_P1;PMS_P2;Temp;Humidity;BMP_temperature;BMP_pressure;BME280_temperature;BME280_humidity;BME280_pressure;Samples;Min_cycle;Max_cycle;Signal;HPM_P1;HPM_P2
2023/03/02 00:01:55;;;;;;;85.63;24.25;;;7.40;85.10;;;;;;5045574;28;20029;-57
2023/03/02 00:04:47;;;;;;;77.13;24.25;;;7.40;85.10;;;;;;5046013;28;20044;-57
2023/03/02 00:07:15;;;;;;;79.53;22.45;;;7.40;85.10;;;;;;5042948;28;20029;-57
2023/03/02 00:09:42;;;;;;;81.20;24.10;;;7.40;85.10;;;;;;5045925;28;20044;-57
2023/03/02 00:12:07;;;;;;;71.68;21.73;;;7.40;85.10;;;;;;5047275;28;20029;-57
2023/03/02 00:14:33;;;;;;;76.07;23.92;;;7.40;85.70;;;;;;5047111;28;20103;-57
2023/03/02 00:16:58;;;;;;;70.13;22.10;;;7.40;85.00;;;;;;5047028;28;20139;-57
2023/03/02 00:19:24;;;;;;;74.72;23.50;;;7.30;85.10;;;;;;5046951;28;20033;-57
2023/03/02 00:21:49;;;;;;;77.60;21.77;;;7.30;85.80;;;;;;5047093;28;20043;-56
2023/03/02 00:24:15;;;;;;;77.22;21.73;;;7.30;85.20;;;;;;5046947;28;20033;-57
2023/03/02 00:26:40;;;;;;;64.85;20.85;;;7.30;85.10;;;;;;5046828;28;20022;-57
2023/03/02 00:29:06;;;;;;;66.50;21.45;;;7.30;85.10;;;;;;5046792;28;20021;-57
2023/03/02 00:31:32;;;;;;;70.38;22.67;;;7.30;85.10;;;;;;5046818;28;20029;-57
2023/03/02 00:33:57;;;;;;;67.20;22.52;;;7.30;85.10;;;;;;5046606;28;20036;-57
2023/03/02 00:36:23;;;;;;;81.20;22.95;;;7.30;85.20;;;;;;5045558;28;20041;-57
2023/03/02 00:38:50;;;;;;;64.35;22.05;;;7.20;85.10;;;;;;5046628;28;20050;-57
2023/03/02 00:41:16;;;;;;;68.80;22.58;;;7.20;85.20;;;;;;5046871;28;20041;-57
2023/03/02 00:43:42;;;;;;;66.82;22.55;;;7.20;85.20;;;;;;5046770;28;20021;-56
2023/03/02 00:46:21;;;;;;;72.45;22.67;;;7.20;85.30;;;;;;5046881;28;20485;-56
2023/03/02 00:48:46;;;;;;;66.20;21.23;;;7.20;85.30;;;;;;5046566;28;20036;-57
2023/03/02 00:51:12;;;;;;;66.03;20.88;;;7.20;85.30;;;;;;5046976;28;20033;-57
2023/03/02 00:53:38;;;;;;;59.85;21.63;;;7.20;85.30;;;;;;5046482;28;20095;-57
2023/03/02 00:56:04;;;;;;;58.83;21.05;;;7.20;85.30;;;;;;5045178;28;20033;-57
2023/03/02 00:58:30;;;;;;;54.95;19.88;;;7.20;85.30;;;;;;5044796;28;20037;-58
2023/03/02 01:00:56;;;;;;;45.22;19.63;;;7.10;85.30;;;;;;5046578;28;20037;-57
2023/03/02 01:03:21;;;;;;;73.25;21.23;;;7.10;85.30;;;;;;5046108;28;20029;-58
2023/03/02 01:05:47;;;;;;;57.42;21.08;;;7.10;85.30;;;;;;5044803;28;20045;-57
2023/03/02 01:08:13;;;;;;;65.05;21.40;;;7.10;85.30;;;;;;5044854;28;20116;-57
2023/03/02 01:10:39;;;;;;;60.40;20.05;;;7.10;85.30;;;;;;5046203;28;20347;-57
2023/03/02 01:13:05;;;;;;;59.05;21.05;;;7.10;85.30;;;;;;5045328;28;20057;-57
2023/03/02 01:15:31;;;;;;;56.10;20.30;;;7.10;85.30;;;;;;5044559;28;20363;-57
2023/03/02 01:17:58;;;;;;;53.55;21.05;;;7.10;85.30;;;;;;5044528;28;20093;-57
2023/03/02 01:20:24;;;;;;;62.03;20.83;;;7.10;85.40;;;;;;5061130;28;20037;-57
2023/03/02 01:22:49;;;;;;;45.72;19.27;;;7.10;85.40;;;;;;5045996;28;20075;-57
2023/03/02 01:25:15;;;;;;;63.90;21.38;;;7.10;85.30;;;;;;5045825;28;20025;-57
2023/03/02 01:27:40;;;;;;;59.05;19.85;;;7.10;85.30;;;;;;5045803;28;20412;-57
2023/03/02 01:30:07;;;;;;;44.40;19.23;;;7.10;85.30;;;;;;5045646;28;20041;-57
2023/03/02 01:32:32;;;;;;;42.00;19.15;;;7.10;85.30;;;;;;5045640;28;20034;-57
2023/03/02 01:34:58;;;;;;;56.47;20.38;;;7.00;85.30;;;;;;5045593;28;20055;-57
2023/03/02 01:37:23;;;;;;;51.35;20.10;;;7.00;85.30;;;;;;5044281;28;20440;-57
2023/03/02 01:39:49;;;;;;;52.40;20.20;;;7.00;85.30;;;;;;5045473;28;20041;-57
2023/03/02 01:42:15;;;;;;;41.08;18.33;;;7.00;85.40;;;;;;5045350;28;20120;-57
2023/03/02 01:44:44;;;;;;;42.50;18.95;;;7.00;85.40;;;;;;5045364;28;20152;-57
2023/03/02 01:47:34;;;;;;;38.05;19.02;;;7.00;85.40;;;;;;5045431;28;20060;-57
2023/03/02 01:50:26;;;;;;;40.67;19.00;;;7.00;85.40;;;;;;5043844;28;20045;-57
2023/03/02 01:52:52;;;;;;;57.63;19.02;;;7.00;85.30;;;;;;5043666;28;20029;-57
2023/03/02 01:55:20;;;;;;;38.03;18.10;;;7.00;85.30;;;;;;5027342;28;20036;-57
2023/03/02 01:57:47;;;;;;;49.55;18.90;;;7.00;85.40;;;;;;5044061;28;20041;-57
2023/03/02 02:00:21;;;;;;;45.00;19.92;;;7.00;85.40;;;;;;5045165;28;20068;-57
2023/03/02 02:02:47;;;;;;;40.13;18.42;;;7.00;85.40;;;;;;5043877;28;20025;-57
2023/03/02 02:05:17;;;;;;;44.10;18.50;;;7.00;85.40;;;;;;5043771;28;20053;-57
2023/03/02 02:07:43;;;;;;;42.45;19.30;;;7.00;85.50;;;;;;5043726;28;20128;-57
2023/03/02 02:10:09;;;;;;;48.15;19.15;;;7.00;85.50;;;;;;5044992;28;20037;-57
2023/03/02 02:12:35;;;;;;;45.90;19.25;;;7.00;85.50;;;;;;5045140;28;20025;-57
2023/03/02 02:15:01;;;;;;;48.78;19.70;;;6.90;85.40;;;;;;5044995;28;20087;-57
2023/03/02 02:17:29;;;;;;;54.47;20.23;;;6.90;85.40;;;;;;5043434;28;20029;-57
2023/03/02 02:20:06;;;;;;;41.60;19.17;;;6.90;85.40;;;;;;5043379;28;20153;-57
2023/03/02 02:22:52;;;;;;;45.75;18.73;;;6.90;85.40;;;;;;5043490;28;20026;-57
2023/03/02 02:25:54;;;;;;;46.58;19.30;;;6.90;85.50;;;;;;5060064;28;20029;-57
2023/03/02 02:28:26;;;;;;;40.10;18.70;;;6.90;85.50;;;;;;5044638;28;20030;-57
2023/03/02 02:31:07;;;;;;;33.28;18.52;;;6.90;85.60;;;;;;5044898;28;20056;-57
2023/03/02 02:33:32;;;;;;;41.38;18.88;;;6.90;85.60;;;;;;5043770;28;20381;-57
2023/03/02 02:36:02;;;;;;;31.48;18.23;;;6.80;85.50;;;;;;5043328;28;20052;-57
2023/03/02 02:38:27;;;;;;;38.38;20.00;;;6.80;85.50;;;;;;5043419;28;20044;-57
2023/03/02 02:40:55;;;;;;;37.55;19.95;;;6.80;85.50;;;;;;5043416;28;20065;-57
2023/03/02 02:43:21;;;;;;;37.70;20.10;;;6.80;86.20;;;;;;5043642;28;20535;-57
2023/03/02 02:45:47;;;;;;;54.63;21.63;;;6.90;85.60;;;;;;5044684;28;20053;-57
2023/03/02 02:48:19;;;;;;;40.65;20.40;;;6.80;85.50;;;;;;5043156;28;20030;-57
2023/03/02 02:50:44;;;;;;;46.47;20.60;;;6.80;85.50;;;;;;5043238;28;20045;-57
2023/03/02 02:53:23;;;;;;;39.25;20.10;;;6.80;85.60;;;;;;5044612;28;20026;-57
2023/03/02 02:55:51;;;;;;;42.38;21.95;;;6.80;85.60;;;;;;5043183;28;20040;-58
2023/03/02 02:58:39;;;;;;;39.33;21.40;;;6.80;85.70;;;;;;5043242;28;20030;-57
2023/03/02 03:01:05;;;;;;;48.92;21.10;;;6.80;85.70;;;;;;5043166;28;20048;-57
2023/03/02 03:03:32;;;;;;;38.70;20.27;;;6.80;85.70;;;;;;5043024;28;20117;-57
2023/03/02 03:05:59;;;;;;;34.60;19.75;;;6.80;85.70;;;;;;5044594;28;20049;-57
2023/03/02 03:08:40;;;;;;;35.38;20.10;;;6.80;86.30;;;;;;5044291;28;20082;-57
2023/03/02 03:11:07;;;;;;;40.60;20.25;;;6.80;85.70;;;;;;5044538;28;20030;-57
2023/03/02 03:13:32;;;;;;;46.55;20.25;;;6.80;85.70;;;;;;5043076;28;20041;-57
2023/03/02 03:15:58;;;;;;;35.95;20.42;;;6.80;85.70;;;;;;5043081;28;20064;-57
2023/03/02 03:18:23;;;;;;;38.88;20.48;;;6.80;85.70;;;;;;5043128;28;20056;-57
2023/03/02 03:20:49;;;;;;;35.70;19.65;;;6.80;85.70;;;;;;5044044;28;20461;-56
2023/03/02 03:23:14;;;;;;;39.40;20.20;;;6.70;85.60;;;;;;5043250;28;20060;-57
2023/03/02 03:25:40;;;;;;;34.92;19.23;;;6.70;85.70;;;;;;5044692;28;20036;-57
2023/03/02 03:28:05;;;;;;;33.60;18.48;;;6.70;85.80;;;;;;5044628;28;20159;-57
2023/03/02 03:30:31;;;;;;;35.40;18.70;;;6.70;86.20;;;;;;5044439;28;20114;-57
2023/03/02 03:32:57;;;;;;;34.47;18.10;;;6.70;86.60;;;;;;5044336;28;20038;-57
2023/03/02 03:35:22;;;;;;;32.28;18.25;;;6.70;86.70;;;;;;5043791;28;20124;-57
2023/03/02 03:37:48;;;;;;;32.30;18.25;;;6.70;86.90;;;;;;5046985;28;20032;-57
2023/03/02 03:40:13;;;;;;;36.00;19.23;;;6.70;87.10;;;;;;5046291;28;20403;-57
2023/03/02 03:42:39;;;;;;;33.55;18.58;;;6.70;87.10;;;;;;5046612;28;20045;-57
2023/03/02 03:45:05;;;;;;;33.90;18.45;;;6.70;87.20;;;;;;5047918;28;20434;-57
2023/03/02 03:47:31;;;;;;;32.45;18.27;;;6.70;87.30;;;;;;5047668;28;20064;-57
2023/03/02 03:49:56;;;;;;;33.35;17.92;;;6.80;87.70;;;;;;5047403;28;20037;-57
2023/03/02 03:52:29;;;;;;;35.33;18.77;;;6.70;87.20;;;;;;5047565;28;20077;-57
2023/03/02 03:54:59;;;;;;;32.33;18.67;;;6.70;87.20;;;;;;5047652;28;20049;-57
2023/03/02 03:57:25;;;;;;;40.40;20.17;;;6.70;87.20;;;;;;5047607;28;20088;-57
2023/03/02 03:59:51;;;;;;;30.00;18.23;;;6.70;87.30;;;;;;5047516;28;20033;-57
2023/03/02 04:02:16;;;;;;;33.85;19.27;;;6.80;87.20;;;;;;5047349;28;20022;-57
2023/03/02 04:04:42;;;;;;;31.20;20.08;;;6.70;87.20;;;;;;5047360;28;20524;-57
2023/03/02 04:07:08;;;;;;;28.02;19.55;;;6.80;87.10;;;;;;5047730;28;20025;-57
2023/03/02 04:09:36;;;;;;;30.60;19.90;;;6.70;87.10;;;;;;5047737;28;20041;-57
2023/03/02 04:12:02;;;;;;;29.08;19.02;;;6.70;87.10;;;;;;5047321;28;20040;-57
2023/03/02 04:14:28;;;;;;;30.45;20.23;;;6.70;87.10;;;;;;5047270;28;20038;-57
2023/03/02 04:16:53;;;;;;;35.55;19.85;;;6.70;87.10;;;;;;5047153;28;20049;-57
2023/03/02 04:19:19;;;;;;;31.55;20.33;;;6.70;87.00;;;;;;5046994;28;20034;-57
2023/03/02 04:21:47;;;;;;;28.35;19.75;;;6.70;87.00;;;;;;5046947;28;20060;-57
2023/03/02 04:24:13;;;;;;;35.63;20.73;;;6.70;87.60;;;;;;5046890;28;20021;-57
2023/03/02 04:26:39;;;;;;;30.85;21.17;;;6.70;86.90;;;;;;5046826;28;20140;-56
2023/03/02 04:29:04;;;;;;;32.05;22.17;;;6.70;86.90;;;;;;5046742;28;20036;-58
2023/03/02 04:31:30;;;;;;;30.77;21.60;;;6.70;86.90;;;;;;5046926;28;20025;-57
2023/03/02 04:33:56;;;;;;;39.97;21.70;;;6.70;86.80;;;;;;5046608;28;20081;-57
2023/03/02 04:36:21;;;;;;;56.95;24.67;;;6.70;86.90;;;;;;5046859;28;20101;-57
2023/03/02 04:38:47;;;;;;;40.35;23.17;;;6.70;86.80;;;;;;5046624;28;20029;-57
2023/03/02 04:41:13;;;;;;;37.45;23.58;;;6.70;86.80;;;;;;5046765;28;20034;-57
2023/03/02 04:43:38;;;;;;;46.78;23.88;;;6.60;86.80;;;;;;5046553;28;20025;-57
2023/03/02 04:46:04;;;;;;;52.17;25.30;;;6.70;86.80;;;;;;5046359;28;20021;-57
2023/03/02 04:48:30;;;;;;;44.08;25.35;;;6.70;86.80;;;;;;5043833;28;20030;-57
2023/03/02 04:50:55;;;;;;;55.30;25.48;;;6.70;86.80;;;;;;5046630;28;20426;-57
2023/03/02 04:53:21;;;;;;;46.17;25.10;;;6.70;86.80;;;;;;5046429;28;20026;-57
2023/03/02 04:55:47;;;;;;;52.58;26.10;;;6.70;86.70;;;;;;5046271;28;20033;-57
2023/03/02 04:58:13;;;;;;;44.13;25.13;;;6.60;86.60;;;;;;5046319;28;20021;-57
2023/03/02 05:00:38;;;;;;;59.53;27.08;;;6.70;86.70;;;;;;5046276;28;20034;-57
2023/03/02 05:03:04;;;;;;;64.45;26.67;;;6.60;86.70;;;;;;5046401;28;20022;-57
2023/03/02 05:05:30;;;;;;;53.72;25.10;;;6.60;87.30;;;;;;5046276;28;20093;-57
2023/03/02 05:07:57;;;;;;;55.65;25.85;;;6.60;86.70;;;;;;5046289;28;20036;-57
2023/03/02 05:10:22;;;;;;;65.90;27.25;;;6.60;86.70;;;;;;5046388;28;20097;-57
2023/03/02 05:12:57;;;;;;;88.80;28.38;;;6.60;86.70;;;;;;5044827;28;20040;-56
2023/03/02 05:15:33;;;;;;;57.03;27.17;;;6.60;86.60;;;;;;5044817;28;20055;-57
2023/03/02 05:17:59;;;;;;;67.47;25.95;;;6.60;86.60;;;;;;5061146;28;20025;-57
2023/03/02 05:20:26;;;;;;;63.58;26.60;;;6.60;86.70;;;;;;5044515;28;20041;-57
2023/03/02 05:22:59;;;;;;;78.00;26.08;;;6.60;86.60;;;;;;5045768;28;20129;-57
2023/03/02 05:25:25;;;;;;;53.28;26.45;;;6.60;86.70;;;;;;5045812;28;20037;-57
2023/03/02 05:27:51;;;;;;;68.43;26.80;;;6.60;86.70;;;;;;5045853;28;20025;-57
2023/03/02 05:30:17;;;;;;;57.80;27.25;;;6.60;86.70;;;;;;5045623;28;20033;-57
2023/03/02 05:32:43;;;;;;;58.25;26.55;;;6.60;86.70;;;;;;5045590;28;20036;-57
2023/03/02 05:35:08;;;;;;;63.13;27.58;;;6.60;86.70;;;;;;5045531;28;20033;-57
2023/03/02 05:37:34;;;;;;;58.13;27.38;;;6.60;86.70;;;;;;5045662;28;20135;-57
2023/03/02 05:39:59;;;;;;;54.40;25.30;;;6.60;87.30;;;;;;5045449;28;20064;-57
2023/03/02 05:42:25;;;;;;;58.65;27.02;;;6.60;86.70;;;;;;5045567;28;20025;-57
2023/03/02 05:44:50;;;;;;;59.60;27.67;;;6.60;86.60;;;;;;5045450;28;20049;-57
2023/03/02 05:47:16;;;;;;;60.22;27.52;;;6.60;86.60;;;;;;5043955;28;20026;-57
2023/03/02 05:49:41;;;;;;;51.83;25.35;;;6.60;86.70;;;;;;5045174;28;20033;-57
2023/03/02 05:52:07;;;;;;;48.13;26.40;;;6.60;87.20;;;;;;5045301;28;20037;-57
2023/03/02 05:54:33;;;;;;;60.65;27.48;;;6.60;87.30;;;;;;5027303;28;20227;-57
2023/03/02 05:56:58;;;;;;;59.72;26.08;;;6.60;87.40;;;;;;5045341;28;20107;-57
2023/03/02 05:59:24;;;;;;;55.13;26.42;;;6.60;87.90;;;;;;5044853;28;20044;-58
2023/03/02 06:01:49;;;;;;;60.40;27.65;;;6.60;88.00;;;;;;5044923;28;20028;-57
2023/03/02 06:04:15;;;;;;;51.03;24.85;;;6.60;87.80;;;;;;5045038;28;20095;-57
2023/03/02 06:06:41;;;;;;;48.80;27.13;;;6.60;87.90;;;;;;5044997;28;20025;-57
2023/03/02 06:09:06;;;;;;;46.53;24.45;;;6.60;88.10;;;;;;5045003;28;20077;-57
2023/03/02 06:11:32;;;;;;;49.33;26.58;;;6.60;87.80;;;;;;5044739;28;20037;-57
2023/03/02 06:13:57;;;;;;;47.65;24.67;;;6.60;87.80;;;;;;5044802;28;20022;-57
2023/03/02 06:16:23;;;;;;;51.25;25.95;;;6.60;87.80;;;;;;5044732;28;20044;-57
2023/03/02 06:18:48;;;;;;;48.75;24.73;;;6.60;87.70;;;;;;5044829;28;20456;-57
2023/03/02 06:21:14;;;;;;;37.80;24.15;;;6.60;87.60;;;;;;5044841;28;20075;-57
2023/03/02 06:23:39;;;;;;;50.95;24.98;;;6.60;88.20;;;;;;5044984;28;20036;-57
2023/03/02 06:26:09;;;;;;;51.88;25.35;;;6.60;87.70;;;;;;5045022;28;20093;-57
2023/03/02 06:28:35;;;;;;;41.40;23.25;;;6.60;87.50;;;;;;5044811;28;20045;-57
2023/03/02 06:31:00;;;;;;;50.83;25.23;;;6.60;87.60;;;;;;5044848;28;20064;-57
2023/03/02 06:33:26;;;;;;;46.95;25.23;;;6.60;87.70;;;;;;5044595;28;20060;-57
2023/03/02 06:35:52;;;;;;;51.28;25.70;;;6.60;87.70;;;;;;5044775;28;20044;-57
2023/03/02 06:38:17;;;;;;;43.90;23.83;;;6.60;87.70;;;;;;5059886;28;20035;-57
2023/03/02 06:40:43;;;;;;;44.70;24.67;;;6.60;87.70;;;;;;5044596;28;20060;-58
2023/03/02 06:43:08;;;;;;;53.08;25.00;;;6.60;88.30;;;;;;5044577;28;20028;-57
2023/03/02 06:45:34;;;;;;;41.80;23.92;;;6.60;87.70;;;;;;5044734;28;20084;-57
2023/03/02 06:48:00;;;;;;;45.75;24.15;;;6.60;87.60;;;;;;5044866;28;20025;-57
2023/03/02 06:50:27;;;;;;;41.13;23.67;;;6.60;87.60;;;;;;5044453;28;20581;-57
2023/03/02 06:52:52;;;;;;;44.67;24.77;;;6.60;87.60;;;;;;5044363;28;20090;-57
2023/03/02 06:55:18;;;;;;;46.13;24.13;;;6.60;87.60;;;;;;5044452;28;20041;-57
2023/03/02 06:57:43;;;;;;;50.65;24.55;;;6.60;87.60;;;;;;5047836;28;20029;-57
2023/03/02 07:00:13;;;;;;;43.03;24.83;;;6.60;87.50;;;;;;5062549;28;20128;-57
2023/03/02 07:02:39;;;;;;;41.15;24.90;;;6.60;87.50;;;;;;5044377;28;20163;-57
2023/03/02 07:05:05;;;;;;;43.72;25.27;;;6.60;87.50;;;;;;5043220;28;20133;-57
2023/03/02 07:07:31;;;;;;;48.83;24.13;;;6.70;87.60;;;;;;5041218;28;20021;-57
2023/03/02 07:09:56;;;;;;;41.25;24.58;;;6.60;87.50;;;;;;5041423;28;20093;-57
2023/03/02 07:12:22;;;;;;;45.33;25.40;;;6.60;87.50;;;;;;5043792;28;20021;-57
2023/03/02 07:14:47;;;;;;;42.78;24.67;;;6.60;87.50;;;;;;5061325;28;20045;-57
2023/03/02 07:17:13;;;;;;;44.90;23.83;;;6.60;87.50;;;;;;5045103;28;20032;-57
2023/03/02 07:19:38;;;;;;;39.78;24.20;;;6.60;87.60;;;;;;5045431;28;20041;-56
2023/03/02 07:22:04;;;;;;;41.67;23.92;;;6.60;87.50;;;;;;5046054;28;20117;-57
2023/03/02 07:24:30;;;;;;;34.38;24.58;;;6.60;87.50;;;;;;5045930;28;20045;-57
2023/03/02 07:26:56;;;;;;;37.90;24.30;;;6.60;87.50;;;;;;5046804;28;20466;-56
2023/03/02 07:29:21;;;;;;;39.97;24.27;;;6.60;87.50;;;;;;5047915;28;20029;-57
2023/03/02 07:31:47;;;;;;;38.80;23.67;;;6.60;87.60;;;;;;5047603;28;20022;-57
2023/03/02 07:34:14;;;;;;;52.13;26.02;;;6.60;87.70;;;;;;5044917;28;20478;-57
2023/03/02 07:36:39;;;;;;;41.83;24.13;;;6.60;87.70;;;;;;5047690;28;20029;-57
2023/03/02 07:39:05;;;;;;;41.75;25.02;;;6.60;87.60;;;;;;5046308;28;20029;-57
2023/03/02 07:41:31;;;;;;;41.33;24.45;;;6.60;87.60;;;;;;5047810;28;20025;-57
2023/03/02 07:43:56;;;;;;;39.42;25.13;;;6.60;87.50;;;;;;5047496;28;20029;-57
2023/03/02 07:46:22;;;;;;;38.40;24.52;;;6.70;87.50;;;;;;5047330;28;20036;-57
2023/03/02 07:48:47;;;;;;;44.90;25.30;;;6.70;87.50;;;;;;5047388;28;20025;-57
2023/03/02 07:51:13;;;;;;;45.05;25.75;;;6.60;87.50;;;;;;5047572;28;20101;-57
2023/03/02 07:53:38;;;;;;;43.42;25.95;;;6.70;87.60;;;;;;5047566;28;20124;-57
2023/03/02 07:56:08;;;;;;;44.05;25.58;;;6.60;87.50;;;;;;5056719;28;20121;-57
2023/03/02 07:58:33;;;;;;;47.25;25.90;;;6.70;87.60;;;;;;5045993;28;20037;-57
2023/03/02 08:00:59;;;;;;;48.28;25.88;;;6.70;87.60;;;;;;5063522;28;20094;-57
2023/03/02 08:03:25;;;;;;;54.58;27.42;;;6.70;87.60;;;;;;5058136;28;20033;-57
2023/03/02 08:05:50;;;;;;;63.17;26.42;;;6.70;87.60;;;;;;5060937;28;20025;-57
2023/03/02 08:08:16;;;;;;;52.55;25.17;;;6.70;87.50;;;;;;5065127;28;20017;-57
2023/03/02 08:10:41;;;;;;;61.10;26.58;;;6.70;87.50;;;;;;5041762;28;20140;-57
2023/03/02 08:13:07;;;;;;;43.92;24.92;;;6.80;87.60;;;;;;5046201;28;20030;-57
2023/03/02 08:15:32;;;;;;;49.67;26.02;;;6.70;87.50;;;;;;5045204;28;20036;-57
2023/03/02 08:17:58;;;;;;;61.85;25.95;;;6.80;87.60;;;;;;5046075;28;20040;-57
2023/03/02 08:20:23;;;;;;;61.75;26.55;;;6.70;87.70;;;;;;5046214;28;20065;-57
2023/03/02 08:22:50;;;;;;;58.13;26.40;;;6.80;87.90;;;;;;5045895;28;20040;-57
2023/03/02 08:25:16;;;;;;;53.05;26.50;;;6.80;87.90;;;;;;5046450;28;20033;-57
2023/03/02 08:27:43;;;;;;;48.45;25.15;;;6.80;87.90;;;;;;5044589;28;20109;-57
2023/03/02 08:30:09;;;;;;;49.53;27.52;;;6.80;87.80;;;;;;5046526;28;20132;-57
2023/03/02 08:32:35;;;;;;;70.95;27.10;;;6.80;87.90;;;;;;5045659;28;20044;-57
2023/03/02 08:35:01;;;;;;;46.38;27.58;;;6.90;88.00;;;;;;5059393;28;20051;-57
2023/03/02 08:37:27;;;;;;;60.47;28.30;;;6.90;87.90;;;;;;5048881;28;20091;-57
2023/03/02 08:39:53;;;;;;;61.58;27.10;;;6.80;87.90;;;;;;5045247;28;20021;-57
2023/03/02 08:42:18;;;;;;;49.40;26.33;;;6.90;87.90;;;;;;5043793;28;20041;-57
2023/03/02 08:44:44;;;;;;;42.97;26.42;;;6.90;87.90;;;;;;5046463;28;20033;-57
2023/03/02 08:47:09;;;;;;;51.97;26.48;;;6.90;87.70;;;;;;5040619;28;20030;-57
2023/03/02 08:49:36;;;;;;;56.65;25.45;;;6.90;87.70;;;;;;5042241;28;20087;-57
2023/03/02 08:52:02;;;;;;;53.17;27.23;;;6.90;87.70;;;;;;5045447;28;20037;-57
2023/03/02 08:54:28;;;;;;;53.17;26.02;;;6.90;87.70;;;;;;5045993;28;20044;-57
2023/03/02 08:56:53;;;;;;;62.05;27.48;;;6.90;87.70;;;;;;5042624;28;20037;-57
2023/03/02 08:59:20;;;;;;;54.35;27.65;;;7.00;87.70;;;;;;5045159;28;20040;-57
2023/03/02 09:01:46;;;;;;;73.40;28.50;;;7.00;87.70;;;;;;5047287;28;20026;-57
2023/03/02 09:04:11;;;;;;;65.60;29.00;;;7.00;87.60;;;;;;5044751;28;20639;-57
2023/03/02 09:06:39;;;;;;;59.88;29.35;;;7.00;87.70;;;;;;5037230;28;20021;-57
2023/03/02 09:09:05;;;;;;;88.22;29.48;;;7.00;87.90;;;;;;5040937;28;20026;-57
2023/03/02 09:11:30;;;;;;;92.93;30.08;;;7.00;88.10;;;;;;5044063;28;20045;-57
2023/03/02 09:13:56;;;;;;;60.42;29.30;;;7.00;88.10;;;;;;5043417;28;20159;-57
2023/03/02 09:16:24;;;;;;;70.57;28.25;;;7.00;87.90;;;;;;5043633;28;20047;-57
2023/03/02 09:18:50;;;;;;;54.40;28.40;;;7.00;87.90;;;;;;5036837;28;20033;-57
2023/03/02 09:21:16;;;;;;;68.35;29.20;;;7.00;87.90;;;;;;5037502;28;20057;-57
2023/03/02 09:23:41;;;;;;;66.38;28.27;;;7.10;87.90;;;;;;5039027;28;20442;-57
2023/03/02 09:26:07;;;;;;;67.32;28.42;;;7.00;87.80;;;;;;5044329;28;20356;-57
2023/03/02 09:28:33;;;;;;;60.17;28.25;;;7.00;87.80;;;;;;5046369;28;20052;-57
2023/03/02 09:31:00;;;;;;;62.30;28.95;;;7.10;87.90;;;;;;5044280;28;20038;-57
2023/03/02 09:33:25;;;;;;;74.75;29.92;;;7.10;87.90;;;;;;5045296;28;20060;-57
2023/03/02 09:35:51;;;;;;;72.47;28.95;;;7.10;87.90;;;;;;5045020;28;20033;-57
2023/03/02 09:38:17;;;;;;;72.63;29.45;;;7.10;87.90;;;;;;5055319;28;20084;-57
2023/03/02 09:40:50;;;;;;;62.38;29.67;;;7.10;88.40;;;;;;5065222;28;20052;-57
2023/03/02 09:43:35;;;;;;;62.03;28.45;;;7.10;87.80;;;;;;5058213;28;20025;-57
2023/03/02 09:46:29;;;;;;;72.90;28.55;;;7.10;87.90;;;;;;5056791;28;20033;-57
2023/03/02 09:49:35;;;;;;;104.68;30.88;;;7.10;87.90;;;;;;5056371;28;20037;-57
2023/03/02 09:52:40;;;;;;;72.97;29.15;;;7.20;87.90;;;;;;5054483;28;20096;-58
2023/03/02 09:55:15;;;;;;;78.57;28.40;;;7.20;87.90;;;;;;5010461;28;20044;-56
2023/03/02 09:57:40;;;;;;;108.38;33.88;;;7.20;88.00;;;;;;5064788;28;20021;-57
2023/03/02 10:00:11;;;;;;;91.78;30.48;;;7.20;88.00;;;;;;5063379;28;20052;-57
2023/03/02 10:02:47;;;;;;;168.75;37.92;;;7.20;88.10;;;;;;5044252;28;20059;-57
2023/03/02 10:05:38;;;;;;;87.57;32.70;;;7.30;88.20;;;;;;5044871;28;20113;-57
2023/03/02 10:08:04;;;;;;;89.00;30.60;;;7.30;88.20;;;;;;5041627;28;20071;-57
2023/03/02 10:10:35;;;;;;;106.00;31.60;;;7.30;88.00;;;;;;5042904;28;20071;-57
2023/03/02 10:13:41;;;;;;;120.10;33.78;;;7.30;87.90;;;;;;5052918;28;20025;-57
2023/03/02 10:16:18;;;;;;;107.38;32.90;;;7.40;88.10;;;;;;5038516;28;20076;-57
2023/03/02 10:19:02;;;;;;;116.47;31.77;;;7.40;88.10;;;;;;5041109;28;20102;-57
2023/03/02 10:21:31;;;;;;;96.32;31.30;;;7.40;88.00;;;;;;5052464;28;20053;-58
2023/03/02 10:24:20;;;;;;;99.30;30.85;;;7.40;88.10;;;;;;5059162;28;20051;-58
2023/03/02 10:26:49;;;;;;;89.75;30.85;;;7.40;88.10;;;;;;5035104;28;20123;-57
2023/03/02 10:29:42;;;;;;;90.10;32.78;;;7.50;88.20;;;;;;5055457;28;20014;-57
2023/03/02 10:32:21;;;;;;;99.45;30.60;;;7.50;88.20;;;;;;5056014;28;20033;-58
2023/03/02 10:34:48;;;;;;;90.15;31.55;;;7.50;88.00;;;;;;5049322;28;20025;-57
2023/03/02 10:37:20;;;;;;;83.88;30.13;;;7.60;87.90;;;;;;5054699;28;20026;-57
2023/03/02 10:39:46;;;;;;;70.70;30.02;;;7.50;87.80;;;;;;5057536;28;20038;-57
2023/03/02 10:42:21;;;;;;;82.75;29.40;;;7.60;88.50;;;;;;5047292;28;20040;-58
2023/03/02 10:44:51;;;;;;;99.75;30.98;;;7.60;87.90;;;;;;5057083;28;20144;-57
2023/03/02 10:47:22;;;;;;;85.97;29.15;;;7.60;87.80;;;;;;5038192;28;20088;-57
2023/03/02 10:49:48;;;;;;;64.28;28.60;;;7.60;87.80;;;;;;5061578;28;20044;-58
2023/03/02 10:52:15;;;;;;;68.47;29.25;;;7.60;87.80;;;;;;5060180;28;20024;-57
2023/03/02 10:54:41;;;;;;;75.45;29.50;;;7.60;87.80;;;;;;5061630;28;20028;-58
2023/03/02 10:57:30;;;;;;;84.63;30.10;;;7.60;87.70;;;;;;5060459;28;20033;-58
2023/03/02 11:00:24;;;;;;;72.00;27.33;;;7.60;87.60;;;;;;5068161;28;20036;-58
2023/03/02 11:02:54;;;;;;;67.22;26.88;;;7.60;87.60;;;;;;5049013;28;20147;-58
2023/03/02 11:05:32;;;;;;;68.82;27.58;;;7.70;87.50;;;;;;5079255;28;20472;-58
2023/03/02 11:08:00;;;;;;;56.58;27.73;;;7.70;87.40;;;;;;5048011;28;20525;-58
2023/03/02 11:10:31;;;;;;;60.53;27.35;;;7.70;87.30;;;;;;5050138;28;20059;-58
2023/03/02 11:12:57;;;;;;;74.18;26.63;;;7.70;87.40;;;;;;5053512;28;20044;-58
2023/03/02 11:15:34;;;;;;;72.63;30.42;;;7.70;87.40;;;;;;5051327;28;20045;-58
2023/03/02 11:18:31;;;;;;;87.13;30.88;;;7.70;87.60;;;;;;5031982;28;20064;-58
2023/03/02 11:21:22;;;;;;;87.07;30.38;;;7.70;87.80;;;;;;5034059;28;20049;-58
2023/03/02 11:24:07;;;;;;;68.55;28.80;;;7.80;87.80;;;;;;5049675;28;20188;-58
2023/03/02 11:26:41;;;;;;;71.57;28.75;;;7.80;87.70;;;;;;5043117;28;20029;-58
2023/03/02 11:29:30;;;;;;;83.40;30.27;;;7.80;87.70;;;;;;5052959;28;20017;-58
2023/03/02 11:32:07;;;;;;;61.95;27.40;;;7.80;87.60;;;;;;5025660;28;20045;-57
2023/03/02 11:34:55;;;;;;;68.93;29.50;;;7.90;87.50;;;;;;5044894;28;20097;-58
2023/03/02 11:37:23;;;;;;;121.70;33.72;;;7.90;87.40;;;;;;5043740;28;20071;-58
2023/03/02 11:39:48;;;;;;;116.47;34.83;;;7.90;87.50;;;;;;5044284;28;20041;-57
2023/03/02 11:42:29;;;;;;;188.43;40.55;;;7.90;87.80;;;;;;5045159;28;20043;-57
2023/03/02 11:44:55;;;;;;;190.82;42.42;;;7.90;87.90;;;;;;5042668;28;20060;-57
2023/03/02 11:47:20;;;;;;;118.07;34.60;;;8.00;87.90;;;;;;5044981;28;20366;-57
2023/03/02 11:49:51;;;;;;;133.43;34.95;;;8.00;88.10;;;;;;5044883;28;20048;-57
2023/03/02 11:52:19;;;;;;;126.97;35.72;;;8.00;88.10;;;;;;5044598;28;20022;-57
2023/03/02 11:54:48;;;;;;;149.75;36.63;;;8.00;88.20;;;;;;5042664;28;20072;-57
2023/03/02 11:57:20;;;;;;;131.48;35.35;;;8.00;88.30;;;;;;5045229;28;20030;-57
2023/03/02 11:59:46;;;;;;;155.95;38.25;;;8.10;88.50;;;;;;5045281;28;20092;-57
2023/03/02 12:02:11;;;;;;;150.77;37.13;;;8.10;88.60;;;;;;5044988;28;20056;-57
2023/03/02 12:04:37;;;;;;;124.03;35.15;;;8.10;88.80;;;;;;5047682;28;20037;-57
2023/03/02 12:07:15;;;;;;;97.15;35.50;;;8.10;88.60;;;;;;5061310;28;20021;-57
2023/03/02 12:09:41;;;;;;;141.30;39.42;;;8.10;88.40;;;;;;5045115;28;20034;-57
2023/03/02 12:12:26;;;;;;;146.85;37.22;;;8.20;88.40;;;;;;5040804;28;20033;-57
2023/03/02 12:14:52;;;;;;;141.60;37.15;;;8.20;88.40;;;;;;5050302;28;20477;-57
2023/03/02 12:17:23;;;;;;;121.95;35.45;;;8.20;88.50;;;;;;5042066;28;20037;-57
2023/03/02 12:19:50;;;;;;;126.68;35.00;;;8.20;89.00;;;;;;5051731;28;20124;-57
2023/03/02 12:22:29;;;;;;;137.45;36.72;;;8.20;88.10;;;;;;5055171;28;20342;-57
2023/03/02 12:25:04;;;;;;;179.40;41.67;;;8.20;88.00;;;;;;5045069;28;20049;-57
2023/03/02 12:27:37;;;;;;;138.23;39.88;;;8.20;88.00;;;;;;5047485;28;20056;-57
2023/03/02 12:30:22;;;;;;;139.20;36.67;;;8.30;88.00;;;;;;5049186;28;20045;-57
2023/03/02 12:32:57;;;;;;;104.72;36.50;;;8.30;87.90;;;;;;5040203;28;20033;-57
2023/03/02 12:35:23;;;;;;;;;;;8.30;87.70;;;;;;5047757;28;20064;-57
2023/03/02 12:37:55;;;;;;;;;;;8.30;87.70;;;;;;5062639;28;19908;-57
2023/03/02 12:40:43;;;;;;;118.93;32.80;;;8.40;87.70;;;;;;5026009;28;20332;-58
2023/03/02 12:43:31;;;;;;;113.78;35.95;;;8.30;87.70;;;;;;5046343;28;20060;-57
2023/03/02 12:46:08;;;;;;;113.85;34.42;;;8.40;87.90;;;;;;5046025;28;20029;-57